Bei Facebook empfehlenBei Twitter postenGoogle plusPinterest

Das Wetter im Erzgebirge am 01.04.2016

Wetter und Klima am 01.04.2016 Holzhau im Erzgebirge (630m ü.NN)
Letzte gemessene Temperatur und Uhrzeit der Messung23:45:00 Uhr-1.60 °C
Temperatur (Maximum / Höchstwert) und Uhrzeit der Messung16:30:00 Uhr6.30 °C
Temperatur (Minimum / Tiefstwert) und Uhrzeit der Messung21:15:00-1.90 °C
Errechneter Absolutwert der Temperaturschwankungen zwischen Tmin und Tmax des Tages8.20 K
Errechnete Tagesmitteltemperatur1.77604 °C
Gesamt - Niederschlag des Tages (in flüssiger Form)4.15 Liter / m²
Luftdruck (Maximum / Höchstwert) und Zeitpunkt der Messung21:00:00 Uhr1019.50 hPa
Luftdruck (Minimum / Tiefstwert) und Zeitpunkt der Messung00:30:00 Uhr1006.50 hPa
Errechneter Absolutwert der Luftdruckschwankungen des Tages13.00 hPa
Höchste gemessene Windgeschwindigkeit und Uhrzeit der Messung23:45:00 Uhr0.00 km/h
Errechnete Windhäufigkeit in Relation zu den Messwerten des Tages0.00000 %
Niedrigste Windkühle (Windchill) und Zeitpunkt der Messung21:15:00 Uhr-1.90 °C
Taupunkt (Maximum / Höchstwert) und Uhrzeit der Messung15:30:00 Uhr4.20 °C
Taupunkt (Minimum / Tiefstwert) und Uhrzeit der Messung21:15:00-3.50 °C
Anzahl der automatisch eingelesenen Messwerte 96

Detaillierte Wetter- und Klima- Messwerte für den 01.04.2016 in Holzhau im Erzgebirge (630m ü.NN)
ZeitTemperaturLuftdruckRel. LuftfeuchteWindWindrichtungWindchillTaupunktNiederschlag l/m²
23:45:00-1.60 °C1018.90 hPa92.00 %-2.90 °C4.15
23:30:00-1.60 °C1019.00 hPa92.00 %-2.90 °C4.15
23:15:00-1.50 °C1018.90 hPa91.00 %-2.90 °C4.15
23:00:00-1.40 °C1018.80 hPa91.00 %-2.80 °C4.15
22:45:00-1.40 °C1018.90 hPa91.00 %-2.80 °C4.15
22:30:00-1.50 °C1019.00 hPa91.00 %-2.90 °C4.15
22:15:00-1.50 °C1019.00 hPa91.00 %-2.90 °C4.15
22:00:00-1.50 °C1019.20 hPa91.00 %-2.90 °C4.15
21:45:00-1.50 °C1019.40 hPa90.00 %-3.10 °C4.15
21:30:00-1.70 °C1019.00 hPa90.00 %-3.30 °C4.15
21:15:00-1.90 °C1019.20 hPa90.00 %-3.50 °C4.15
21:00:00-1.60 °C1019.50 hPa90.00 %-3.20 °C4.15
20:45:00-1.60 °C1019.30 hPa89.00 %-3.40 °C4.15
20:30:00-1.40 °C1018.90 hPa89.00 %-3.20 °C4.15
20:15:00-1.00 °C1018.60 hPa89.00 %-2.80 °C4.15
20:00:00-0.70 °C1018.60 hPa89.00 %-2.50 °C4.15
19:45:00-0.60 °C1018.30 hPa88.00 %-2.50 °C4.15
19:30:00-0.20 °C1018.20 hPa88.00 %-2.10 °C4.15
19:15:000.10 °C1017.90 hPa87.00 %-1.80 °C4.15
19:00:000.80 °C1018.10 hPa86.00 %-1.30 °C4.15
18:45:001.50 °C1018.00 hPa86.00 %-0.60 °C4.15
18:30:002.40 °C1018.10 hPa85.00 %0.10 °C4.15
18:15:003.10 °C1017.80 hPa85.00 %0.80 °C4.15
18:00:003.80 °C1017.70 hPa84.00 %1.40 °C4.15
17:45:004.40 °C1017.60 hPa84.00 %1.90 °C4.15
17:30:005.30 °C1017.50 hPa83.00 %2.70 °C4.15
17:15:005.60 °C1017.30 hPa83.00 %2.90 °C4.15
17:00:005.60 °C1017.40 hPa83.00 %2.90 °C4.15
16:45:005.90 °C1017.30 hPa83.00 %3.20 °C4.15
16:30:006.30 °C1017.10 hPa84.00 %3.80 °C4.15
16:15:006.00 °C1017.10 hPa84.00 %3.50 °C4.15
16:00:005.90 °C1017.30 hPa84.00 %3.40 °C4.15
15:45:006.30 °C1017.30 hPa86.00 %4.10 °C4.15
15:30:006.20 °C1017.30 hPa87.00 %4.20 °C4.15
15:15:005.60 °C1017.10 hPa87.00 %3.60 °C4.15
15:00:005.80 °C1017.20 hPa88.00 %4.00 °C4.15
14:45:005.70 °C1017.30 hPa89.00 %4.00 °C4.15
14:30:005.60 °C1017.10 hPa90.00 %4.10 °C4.15
14:15:004.90 °C1017.20 hPa90.00 %3.40 °C4.15
14:00:004.10 °C1017.30 hPa90.00 %2.60 °C4.15
13:45:004.30 °C1017.30 hPa90.00 %2.80 °C4.15
13:30:004.30 °C1017.10 hPa91.00 %3.00 °C4.15
13:15:004.40 °C1016.80 hPa91.00 %3.10 °C3.63
13:00:004.80 °C1016.80 hPa92.00 %3.60 °C3.63
12:45:004.90 °C1016.40 hPa92.00 %3.70 °C3.63
12:30:004.60 °C1016.10 hPa93.00 %3.60 °C3.11
12:15:004.10 °C1015.70 hPa94.00 %3.20 °C2.59
12:00:003.50 °C1015.20 hPa93.00 %2.50 °C2.07
11:45:003.20 °C1015.30 hPa94.00 %2.30 °C1.56
11:30:002.90 °C1015.30 hPa94.00 %2.00 °C1.04
11:15:002.70 °C1015.30 hPa94.00 %1.80 °C0.52
11:00:002.50 °C1014.90 hPa94.00 %1.60 °C0.52
10:45:002.30 °C1014.70 hPa94.00 %1.40 °C 
10:30:002.40 °C1014.20 hPa94.00 %1.50 °C 
10:15:002.50 °C1014.30 hPa94.00 %1.60 °C 
10:00:002.10 °C1013.70 hPa94.00 %1.20 °C 
09:45:001.60 °C1013.50 hPa94.00 %0.70 °C 
09:30:001.30 °C1013.10 hPa94.00 %0.40 °C 
09:15:001.30 °C1012.30 hPa94.00 %0.40 °C 
09:00:001.30 °C1012.10 hPa94.00 %0.40 °C 
08:45:001.10 °C1011.80 hPa94.00 %0.20 °C 
08:30:001.00 °C1011.90 hPa95.00 %0.30 °C 
08:15:000.80 °C1011.20 hPa95.00 %0.10 °C 
08:00:000.60 °C1011.20 hPa94.00 %-0.30 °C 
07:45:000.40 °C1010.90 hPa94.00 %-0.50 °C 
07:30:000.40 °C1011.10 hPa94.00 %-0.50 °C 
07:15:000.50 °C1010.20 hPa94.00 %-0.40 °C 
07:00:000.30 °C1010.70 hPa94.00 %-0.50 °C 
06:45:000.20 °C1011.00 hPa94.00 %-0.60 °C 
06:30:000.30 °C1010.60 hPa94.00 %-0.50 °C 
06:15:000.30 °C1010.20 hPa94.00 %-0.50 °C 
06:00:000.30 °C1010.00 hPa94.00 %-0.50 °C 
05:45:000.40 °C1008.80 hPa94.00 %-0.50 °C 
05:30:000.40 °C1009.00 hPa94.00 %-0.50 °C 
05:15:000.40 °C1008.40 hPa94.00 %-0.50 °C 
05:00:000.40 °C1008.10 hPa94.00 %-0.50 °C 
04:45:000.40 °C1008.50 hPa94.00 %-0.50 °C 
04:30:000.60 °C1008.50 hPa94.00 %-0.30 °C 
04:15:000.80 °C1008.40 hPa94.00 %-0.10 °C 
04:00:000.90 °C1007.80 hPa94.00 %0.00 °C 
03:45:000.90 °C1007.10 hPa94.00 %0.00 °C 
03:30:000.90 °C1006.90 hPa94.00 %0.00 °C 
03:15:001.00 °C1007.00 hPa94.00 %0.10 °C 
03:00:001.00 °C1007.40 hPa94.00 %0.10 °C 
02:45:001.10 °C1007.00 hPa94.00 %0.20 °C 
02:30:001.10 °C1006.60 hPa94.00 %0.20 °C 
02:15:001.10 °C1006.70 hPa94.00 %0.20 °C 
02:00:001.20 °C1006.70 hPa94.00 %0.30 °C 
01:45:001.30 °C1006.60 hPa93.00 %0.30 °C 
01:30:001.30 °C1006.60 hPa93.00 %0.30 °C 
01:15:001.50 °C1006.60 hPa93.00 %0.50 °C 
01:00:001.60 °C1006.60 hPa94.00 %0.70 °C 
00:45:001.80 °C1006.60 hPa93.00 %0.80 °C 
00:30:001.90 °C1006.50 hPa93.00 %0.90 °C 
00:15:002.20 °C1006.60 hPa93.00 %1.20 °C 
00:00:002.40 °C1006.50 hPa93.00 %1.40 °C 

Permanenter Link zu dieser Seite: Wetter im Erzgebirge am 01.04.2016
Performance-Info: Die Erstellung der Seite / Statistik(en) / Tabelle(n) erforderte 5 Datenbankserver-Abfrage(n) und dauerte 123 Millisekunden. (Dieser Messwert ist von der Gesamt-Auslastung des Servers abhängig.)
Erzgebirge - Wetter | Erzgebirge - Wetter (Mobilgeräte) | Komplette Klimadatenbank